Terminal Aerodrome Forecast
Issued by NWS

Home | Current Version | Previous Version | Text Only | Print | Product List | Glossary On
Versions: 1 2 3 4 5 6 7 8 9 10 11 12 13 14 15
000
FTUS46 KSGX 051134
TAFSNA
TAF
KSNA 051134Z 0512/0612 VRB04KT P6SM OVC025
     FM051500 VRB04KT P6SM BKN030
     FM052000 26011KT P6SM SCT035
     FM060200 VRB04KT P6SM SCT025
     FM060700 VRB04KT P6SM BKN025=

USA.gov is the U.S. government's official web portal to all federal, state and local government web resources and services.